sensor_id;sensor_type;location;lat;lon;timestamp;temperature;humidity
25953;DHT22;13750;50.804;8.764;2022-07-22T12:49:15;23.60;58.40
25953;DHT22;13750;50.804;8.764;2022-07-22T12:51:41;23.60;58.70
25953;DHT22;13750;50.804;8.764;2022-07-22T12:54:07;23.70;58.60
25953;DHT22;13750;50.804;8.764;2022-07-22T12:56:32;23.70;58.40
25953;DHT22;13750;50.804;8.764;2022-07-22T12:58:59;23.70;58.10
25953;DHT22;13750;50.804;8.764;2022-07-22T13:01:24;23.70;57.90
25953;DHT22;13750;50.804;8.764;2022-07-22T13:03:50;23.70;58.00
25953;DHT22;13750;50.804;8.764;2022-07-22T13:06:15;23.70;57.80
25953;DHT22;13750;50.804;8.764;2022-07-22T13:08:41;23.80;57.60
25953;DHT22;13750;50.804;8.764;2022-07-22T13:11:07;23.80;57.80
25953;DHT22;13750;50.804;8.764;2022-07-22T13:13:32;23.80;57.80
25953;DHT22;13750;50.804;8.764;2022-07-22T13:15:58;23.80;57.80
25953;DHT22;13750;50.804;8.764;2022-07-22T13:18:24;23.80;57.70
25953;DHT22;13750;50.804;8.764;2022-07-22T13:20:49;23.90;57.50
25953;DHT22;13750;50.804;8.764;2022-07-22T13:23:15;23.90;57.00
25953;DHT22;13750;50.804;8.764;2022-07-22T13:25:41;23.90;56.50
25953;DHT22;13750;50.804;8.764;2022-07-22T13:28:06;24.00;56.30
25953;DHT22;13750;50.804;8.764;2022-07-22T13:30:32;24.00;56.00
25953;DHT22;13750;50.804;8.764;2022-07-22T13:32:58;24.10;55.90
25953;DHT22;13750;50.804;8.764;2022-07-22T13:35:24;24.10;55.80
25953;DHT22;13750;50.804;8.764;2022-07-22T13:37:49;24.10;55.80
25953;DHT22;13750;50.804;8.764;2022-07-22T13:40:15;24.10;55.60
25953;DHT22;13750;50.804;8.764;2022-07-22T13:42:41;24.20;55.40
25953;DHT22;13750;50.804;8.764;2022-07-22T13:45:07;24.20;55.20
25953;DHT22;13750;50.804;8.764;2022-07-22T13:47:35;24.20;55.20
25953;DHT22;13750;50.804;8.764;2022-07-22T13:50:01;24.30;54.90
25953;DHT22;13750;50.804;8.764;2022-07-22T13:52:27;24.30;54.70
25953;DHT22;13750;50.804;8.764;2022-07-22T13:54:53;24.40;54.50
25953;DHT22;13750;50.804;8.764;2022-07-22T13:57:19;24.50;54.10
25953;DHT22;13750;50.804;8.764;2022-07-22T13:59:45;24.50;54.10
25953;DHT22;13750;50.804;8.764;2022-07-22T14:02:11;24.50;54.20
25953;DHT22;13750;50.804;8.764;2022-07-22T14:04:37;24.60;54.10
25953;DHT22;13750;50.804;8.764;2022-07-22T14:07:02;24.60;54.00
25953;DHT22;13750;50.804;8.764;2022-07-22T14:09:28;24.60;54.10
25953;DHT22;13750;50.804;8.764;2022-07-22T14:11:54;24.70;54.10
25953;DHT22;13750;50.804;8.764;2022-07-22T14:14:19;24.80;54.30
25953;DHT22;13750;50.804;8.764;2022-07-22T14:16:45;24.80;54.30
25953;DHT22;13750;50.804;8.764;2022-07-22T14:19:13;24.80;54.30
25953;DHT22;13750;50.804;8.764;2022-07-22T14:21:42;24.90;54.10
25953;DHT22;13750;50.804;8.764;2022-07-22T14:24:09;24.90;54.00
25953;DHT22;13750;50.804;8.764;2022-07-22T14:26:38;24.90;54.00
25953;DHT22;13750;50.804;8.764;2022-07-22T14:29:05;25.00;54.00
25953;DHT22;13750;50.804;8.764;2022-07-22T14:31:32;25.00;53.90
25953;DHT22;13750;50.804;8.764;2022-07-22T14:33:57;24.90;53.70
25953;DHT22;13750;50.804;8.764;2022-07-22T14:36:23;25.00;53.60
25953;DHT22;13750;50.804;8.764;2022-07-22T14:38:49;25.00;53.60
25953;DHT22;13750;50.804;8.764;2022-07-22T14:41:19;25.00;53.60
25953;DHT22;13750;50.804;8.764;2022-07-22T14:43:45;25.00;53.50
25953;DHT22;13750;50.804;8.764;2022-07-22T14:46:10;25.00;53.50
25953;DHT22;13750;50.804;8.764;2022-07-22T14:48:38;25.10;53.30
25953;DHT22;13750;50.804;8.764;2022-07-22T14:51:05;25.10;53.10
25953;DHT22;13750;50.804;8.764;2022-07-22T14:53:31;25.10;52.80
25953;DHT22;13750;50.804;8.764;2022-07-22T14:55:56;25.10;52.80
25953;DHT22;13750;50.804;8.764;2022-07-22T14:58:22;25.20;52.80
25953;DHT22;13750;50.804;8.764;2022-07-22T15:00:47;25.20;52.80
25953;DHT22;13750;50.804;8.764;2022-07-22T15:03:14;25.30;52.70
25953;DHT22;13750;50.804;8.764;2022-07-22T15:05:39;25.30;52.40
25953;DHT22;13750;50.804;8.764;2022-07-22T15:08:07;25.50;52.40
25953;DHT22;13750;50.804;8.764;2022-07-22T15:10:33;25.50;52.40
25953;DHT22;13750;50.804;8.764;2022-07-22T15:12:59;25.60;52.00
25953;DHT22;13750;50.804;8.764;2022-07-22T15:15:24;25.60;51.70
25953;DHT22;13750;50.804;8.764;2022-07-22T15:17:50;25.60;51.90
25953;DHT22;13750;50.804;8.764;2022-07-22T15:20:16;25.70;51.80
25953;DHT22;13750;50.804;8.764;2022-07-22T15:22:42;25.70;51.60
25953;DHT22;13750;50.804;8.764;2022-07-22T15:25:07;25.70;51.70
25953;DHT22;13750;50.804;8.764;2022-07-22T15:27:34;25.80;51.90
25953;DHT22;13750;50.804;8.764;2022-07-22T15:30:04;25.80;51.90
25953;DHT22;13750;50.804;8.764;2022-07-22T15:32:30;25.80;52.00
25953;DHT22;13750;50.804;8.764;2022-07-22T15:34:56;25.90;51.80
25953;DHT22;13750;50.804;8.764;2022-07-22T15:37:21;25.80;51.50
25953;DHT22;13750;50.804;8.764;2022-07-22T15:39:49;25.90;51.20
25953;DHT22;13750;50.804;8.764;2022-07-22T15:42:15;25.90;51.20
25953;DHT22;13750;50.804;8.764;2022-07-22T15:44:41;25.80;51.30
25953;DHT22;13750;50.804;8.764;2022-07-22T15:47:07;25.80;51.50
25953;DHT22;13750;50.804;8.764;2022-07-22T15:49:33;25.70;51.70
25953;DHT22;13750;50.804;8.764;2022-07-22T15:51:59;25.70;51.80
25953;DHT22;13750;50.804;8.764;2022-07-22T15:54:25;25.70;51.90
25953;DHT22;13750;50.804;8.764;2022-07-22T15:56:51;25.70;51.90
25953;DHT22;13750;50.804;8.764;2022-07-22T15:59:17;25.70;51.80
25953;DHT22;13750;50.804;8.764;2022-07-22T16:01:57;25.70;51.90
25953;DHT22;13750;50.804;8.764;2022-07-22T16:04:24;25.80;52.00
25953;DHT22;13750;50.804;8.764;2022-07-22T16:06:50;25.80;52.20
25953;DHT22;13750;50.804;8.764;2022-07-22T16:09:15;25.90;52.10
25953;DHT22;13750;50.804;8.764;2022-07-22T16:11:41;25.90;52.20
25953;DHT22;13750;50.804;8.764;2022-07-22T16:14:07;25.90;52.00
25953;DHT22;13750;50.804;8.764;2022-07-22T16:16:32;25.90;52.00
25953;DHT22;13750;50.804;8.764;2022-07-22T16:18:58;25.90;52.10
25953;DHT22;13750;50.804;8.764;2022-07-22T16:21:24;26.00;51.50
25953;DHT22;13750;50.804;8.764;2022-07-22T16:23:49;26.00;50.80
25953;DHT22;13750;50.804;8.764;2022-07-22T16:26:15;26.00;50.80
25953;DHT22;13750;50.804;8.764;2022-07-22T16:28:41;26.00;50.80
25953;DHT22;13750;50.804;8.764;2022-07-22T16:31:11;26.00;50.90
25953;DHT22;13750;50.804;8.764;2022-07-22T16:33:37;26.00;51.00
25953;DHT22;13750;50.804;8.764;2022-07-22T16:36:04;26.00;50.70
25953;DHT22;13750;50.804;8.764;2022-07-22T16:38:29;26.00;50.70
25953;DHT22;13750;50.804;8.764;2022-07-22T16:40:55;26.00;50.50
25953;DHT22;13750;50.804;8.764;2022-07-22T16:43:21;26.00;50.60
25953;DHT22;13750;50.804;8.764;2022-07-22T16:45:46;26.00;50.60
25953;DHT22;13750;50.804;8.764;2022-07-22T16:48:12;26.00;50.50
25953;DHT22;13750;50.804;8.764;2022-07-22T16:50:37;26.00;50.60
25953;DHT22;13750;50.804;8.764;2022-07-22T16:53:03;26.00;50.80
25953;DHT22;13750;50.804;8.764;2022-07-22T16:55:29;26.00;50.90
25953;DHT22;13750;50.804;8.764;2022-07-22T16:57:55;26.00;50.70
25953;DHT22;13750;50.804;8.764;2022-07-22T17:00:21;25.90;50.10
25953;DHT22;13750;50.804;8.764;2022-07-22T17:02:46;25.90;50.30
25953;DHT22;13750;50.804;8.764;2022-07-22T17:05:12;25.90;50.40
25953;DHT22;13750;50.804;8.764;2022-07-22T17:07:38;25.80;50.50
25953;DHT22;13750;50.804;8.764;2022-07-22T17:10:04;25.80;50.40
25953;DHT22;13750;50.804;8.764;2022-07-22T17:12:30;25.80;50.40
25953;DHT22;13750;50.804;8.764;2022-07-22T17:14:55;25.80;50.50
25953;DHT22;13750;50.804;8.764;2022-07-22T17:17:21;25.70;50.50
25953;DHT22;13750;50.804;8.764;2022-07-22T17:19:46;25.70;50.40
25953;DHT22;13750;50.804;8.764;2022-07-22T17:22:12;25.60;50.50
25953;DHT22;13750;50.804;8.764;2022-07-22T17:24:38;25.60;50.30
25953;DHT22;13750;50.804;8.764;2022-07-22T17:27:03;25.60;50.40
25953;DHT22;13750;50.804;8.764;2022-07-22T17:29:29;25.70;50.50
25953;DHT22;13750;50.804;8.764;2022-07-22T17:31:55;25.70;50.60
25953;DHT22;13750;50.804;8.764;2022-07-22T17:34:20;25.80;50.80
25953;DHT22;13750;50.804;8.764;2022-07-22T17:36:46;25.90;50.50
25953;DHT22;13750;50.804;8.764;2022-07-22T17:39:12;25.90;50.60
25953;DHT22;13750;50.804;8.764;2022-07-22T17:41:38;25.90;50.60
25953;DHT22;13750;50.804;8.764;2022-07-22T17:44:04;26.00;49.60
25953;DHT22;13750;50.804;8.764;2022-07-22T17:46:30;26.00;49.50
25953;DHT22;13750;50.804;8.764;2022-07-22T17:48:55;25.90;49.70
25953;DHT22;13750;50.804;8.764;2022-07-22T17:51:21;26.00;49.90
25953;DHT22;13750;50.804;8.764;2022-07-22T17:53:47;26.00;50.20
25953;DHT22;13750;50.804;8.764;2022-07-22T17:56:12;26.00;51.20
25953;DHT22;13750;50.804;8.764;2022-07-22T17:58:38;26.00;51.40
25953;DHT22;13750;50.804;8.764;2022-07-22T18:01:04;26.00;51.80
25953;DHT22;13750;50.804;8.764;2022-07-22T18:03:29;25.90;52.00
25953;DHT22;13750;50.804;8.764;2022-07-22T18:05:55;25.90;52.40
25953;DHT22;13750;50.804;8.764;2022-07-22T18:08:21;25.90;52.70
25953;DHT22;13750;50.804;8.764;2022-07-22T18:10:47;25.90;52.90
25953;DHT22;13750;50.804;8.764;2022-07-22T18:13:13;25.80;53.20
25953;DHT22;13750;50.804;8.764;2022-07-22T18:15:41;25.80;53.90
25953;DHT22;13750;50.804;8.764;2022-07-22T18:18:07;25.70;54.80
25953;DHT22;13750;50.804;8.764;2022-07-22T18:20:33;25.60;55.50
25953;DHT22;13750;50.804;8.764;2022-07-22T18:22:58;25.50;56.10
25953;DHT22;13750;50.804;8.764;2022-07-22T18:25:24;25.40;56.50
25953;DHT22;13750;50.804;8.764;2022-07-22T18:27:50;25.30;56.70
25953;DHT22;13750;50.804;8.764;2022-07-22T18:30:15;25.20;57.00
25953;DHT22;13750;50.804;8.764;2022-07-22T18:32:41;25.10;57.50
25953;DHT22;13750;50.804;8.764;2022-07-22T18:35:08;25.00;57.90
25953;DHT22;13750;50.804;8.764;2022-07-22T18:37:34;25.00;58.10
25953;DHT22;13750;50.804;8.764;2022-07-22T18:39:59;24.90;58.40
25953;DHT22;13750;50.804;8.764;2022-07-22T18:42:25;24.80;58.70
25953;DHT22;13750;50.804;8.764;2022-07-22T18:44:51;24.70;59.00
25953;DHT22;13750;50.804;8.764;2022-07-22T18:47:16;24.60;59.20
25953;DHT22;13750;50.804;8.764;2022-07-22T18:49:42;24.60;59.50
25953;DHT22;13750;50.804;8.764;2022-07-22T18:52:08;24.60;59.70
25953;DHT22;13750;50.804;8.764;2022-07-22T18:54:34;24.50;59.90
25953;DHT22;13750;50.804;8.764;2022-07-22T18:57:00;24.30;60.10
25953;DHT22;13750;50.804;8.764;2022-07-22T18:59:26;24.30;60.40
25953;DHT22;13750;50.804;8.764;2022-07-22T19:01:51;24.20;60.70
25953;DHT22;13750;50.804;8.764;2022-07-22T19:04:17;24.10;60.90
25953;DHT22;13750;50.804;8.764;2022-07-22T19:06:44;24.00;61.00
25953;DHT22;13750;50.804;8.764;2022-07-22T19:09:10;24.00;61.30
25953;DHT22;13750;50.804;8.764;2022-07-22T19:11:36;23.90;61.30
25953;DHT22;13750;50.804;8.764;2022-07-22T19:14:02;23.80;61.50
25953;DHT22;13750;50.804;8.764;2022-07-22T19:16:28;23.70;61.60
25953;DHT22;13750;50.804;8.764;2022-07-22T19:18:53;23.70;61.70
25953;DHT22;13750;50.804;8.764;2022-07-22T19:21:19;23.70;61.80
25953;DHT22;13750;50.804;8.764;2022-07-22T19:23:45;23.70;62.00
25953;DHT22;13750;50.804;8.764;2022-07-22T19:26:12;23.60;62.10
25953;DHT22;13750;50.804;8.764;2022-07-22T19:28:38;23.60;62.30
25953;DHT22;13750;50.804;8.764;2022-07-22T19:31:04;23.60;62.40
25953;DHT22;13750;50.804;8.764;2022-07-22T19:33:29;23.60;62.50
25953;DHT22;13750;50.804;8.764;2022-07-22T19:35:55;23.50;62.60
25953;DHT22;13750;50.804;8.764;2022-07-22T19:38:21;23.50;62.80
25953;DHT22;13750;50.804;8.764;2022-07-22T19:40:46;23.40;62.80
25953;DHT22;13750;50.804;8.764;2022-07-22T19:43:12;23.40;62.90
25953;DHT22;13750;50.804;8.764;2022-07-22T19:45:38;23.30;62.90
25953;DHT22;13750;50.804;8.764;2022-07-22T19:48:04;23.30;63.10
25953;DHT22;13750;50.804;8.764;2022-07-22T19:50:31;23.30;63.20
25953;DHT22;13750;50.804;8.764;2022-07-22T19:52:57;23.20;63.20
25953;DHT22;13750;50.804;8.764;2022-07-22T19:55:23;23.10;63.30
25953;DHT22;13750;50.804;8.764;2022-07-22T19:57:48;23.10;63.50
25953;DHT22;13750;50.804;8.764;2022-07-22T20:00:14;23.10;63.60
25953;DHT22;13750;50.804;8.764;2022-07-22T20:02:40;23.00;63.70
25953;DHT22;13750;50.804;8.764;2022-07-22T20:05:06;23.00;63.80
25953;DHT22;13750;50.804;8.764;2022-07-22T20:07:32;22.90;64.00
25953;DHT22;13750;50.804;8.764;2022-07-22T20:09:58;22.90;64.10
25953;DHT22;13750;50.804;8.764;2022-07-22T20:12:23;22.80;64.30
25953;DHT22;13750;50.804;8.764;2022-07-22T20:14:49;22.70;64.40
25953;DHT22;13750;50.804;8.764;2022-07-22T20:17:14;22.60;64.60
25953;DHT22;13750;50.804;8.764;2022-07-22T20:19:40;22.60;64.80
25953;DHT22;13750;50.804;8.764;2022-07-22T20:22:07;22.60;65.00
25953;DHT22;13750;50.804;8.764;2022-07-22T20:24:34;22.50;65.00
25953;DHT22;13750;50.804;8.764;2022-07-22T20:26:59;22.60;65.10
25953;DHT22;13750;50.804;8.764;2022-07-22T20:29:25;22.50;65.10
25953;DHT22;13750;50.804;8.764;2022-07-22T20:31:51;22.50;65.40
25953;DHT22;13750;50.804;8.764;2022-07-22T20:34:18;22.40;65.30
25953;DHT22;13750;50.804;8.764;2022-07-22T20:36:48;22.30;65.50
25953;DHT22;13750;50.804;8.764;2022-07-22T20:39:14;22.30;65.60
25953;DHT22;13750;50.804;8.764;2022-07-22T20:41:39;22.20;65.70
25953;DHT22;13750;50.804;8.764;2022-07-22T20:44:06;22.20;65.80
25953;DHT22;13750;50.804;8.764;2022-07-22T20:46:32;22.20;65.90
25953;DHT22;13750;50.804;8.764;2022-07-22T20:48:57;22.10;66.00
25953;DHT22;13750;50.804;8.764;2022-07-22T20:51:23;22.10;66.10
25953;DHT22;13750;50.804;8.764;2022-07-22T20:53:49;22.10;66.10
25953;DHT22;13750;50.804;8.764;2022-07-22T20:56:15;22.00;66.20
25953;DHT22;13750;50.804;8.764;2022-07-22T20:58:40;22.00;66.40
25953;DHT22;13750;50.804;8.764;2022-07-22T21:01:06;21.90;66.50
25953;DHT22;13750;50.804;8.764;2022-07-22T21:03:32;21.90;66.60
25953;DHT22;13750;50.804;8.764;2022-07-22T21:05:58;21.80;66.80
25953;DHT22;13750;50.804;8.764;2022-07-22T21:08:23;21.80;66.80
25953;DHT22;13750;50.804;8.764;2022-07-22T21:10:49;21.70;66.90
25953;DHT22;13750;50.804;8.764;2022-07-22T21:13:15;21.70;66.90
25953;DHT22;13750;50.804;8.764;2022-07-22T21:15:41;21.70;66.90
25953;DHT22;13750;50.804;8.764;2022-07-22T21:18:07;21.70;66.90
25953;DHT22;13750;50.804;8.764;2022-07-22T21:20:33;21.60;66.90
25953;DHT22;13750;50.804;8.764;2022-07-22T21:22:59;21.60;67.00
25953;DHT22;13750;50.804;8.764;2022-07-22T21:25:25;21.60;67.60
25953;DHT22;13750;50.804;8.764;2022-07-22T21:27:51;21.60;67.90
25953;DHT22;13750;50.804;8.764;2022-07-22T21:30:17;21.60;68.40
25953;DHT22;13750;50.804;8.764;2022-07-22T21:32:43;21.50;68.90
25953;DHT22;13750;50.804;8.764;2022-07-22T21:35:10;21.40;69.50
25953;DHT22;13750;50.804;8.764;2022-07-22T21:37:36;21.30;70.50
25953;DHT22;13750;50.804;8.764;2022-07-22T21:40:04;21.20;71.00
25953;DHT22;13750;50.804;8.764;2022-07-22T21:42:30;21.10;71.20
25953;DHT22;13750;50.804;8.764;2022-07-22T21:44:56;21.10;71.20
25953;DHT22;13750;50.804;8.764;2022-07-22T21:47:21;21.00;71.50
25953;DHT22;13750;50.804;8.764;2022-07-22T21:49:47;20.90;71.50
25953;DHT22;13750;50.804;8.764;2022-07-22T21:52:13;20.80;72.10
25953;DHT22;13750;50.804;8.764;2022-07-22T21:54:39;20.80;72.70
25953;DHT22;13750;50.804;8.764;2022-07-22T21:57:04;20.70;72.50
25953;DHT22;13750;50.804;8.764;2022-07-22T21:59:31;20.60;72.90
25953;DHT22;13750;50.804;8.764;2022-07-22T22:01:58;20.60;73.00
25953;DHT22;13750;50.804;8.764;2022-07-22T22:04:24;20.50;72.80
25953;DHT22;13750;50.804;8.764;2022-07-22T22:06:50;20.50;73.20
25953;DHT22;13750;50.804;8.764;2022-07-22T22:09:17;20.50;73.20
25953;DHT22;13750;50.804;8.764;2022-07-22T22:11:43;20.50;73.60
25953;DHT22;13750;50.804;8.764;2022-07-22T22:14:10;20.50;74.10
25953;DHT22;13750;50.804;8.764;2022-07-22T22:16:36;20.50;73.90
25953;DHT22;13750;50.804;8.764;2022-07-22T22:19:02;20.40;74.00
25953;DHT22;13750;50.804;8.764;2022-07-22T22:21:29;20.30;74.10
25953;DHT22;13750;50.804;8.764;2022-07-22T22:23:57;20.30;74.20
25953;DHT22;13750;50.804;8.764;2022-07-22T22:26:23;20.30;73.90
25953;DHT22;13750;50.804;8.764;2022-07-22T22:28:48;20.20;73.70
25953;DHT22;13750;50.804;8.764;2022-07-22T22:31:14;20.20;74.30
25953;DHT22;13750;50.804;8.764;2022-07-22T22:33:40;20.20;74.70
25953;DHT22;13750;50.804;8.764;2022-07-22T22:36:06;20.10;75.00
25953;DHT22;13750;50.804;8.764;2022-07-22T22:38:32;20.10;75.00
25953;DHT22;13750;50.804;8.764;2022-07-22T22:40:57;20.10;75.10
25953;DHT22;13750;50.804;8.764;2022-07-22T22:43:27;20.10;74.90
25953;DHT22;13750;50.804;8.764;2022-07-22T22:45:52;20.00;74.90
25953;DHT22;13750;50.804;8.764;2022-07-22T22:48:18;20.00;75.00
25953;DHT22;13750;50.804;8.764;2022-07-22T22:50:44;20.00;74.90
25953;DHT22;13750;50.804;8.764;2022-07-22T22:53:09;19.90;74.90
25953;DHT22;13750;50.804;8.764;2022-07-22T22:55:35;19.90;74.90
25953;DHT22;13750;50.804;8.764;2022-07-22T22:58:01;19.90;74.90
25953;DHT22;13750;50.804;8.764;2022-07-22T23:00:26;19.80;74.90
25953;DHT22;13750;50.804;8.764;2022-07-22T23:02:52;19.80;75.00
25953;DHT22;13750;50.804;8.764;2022-07-22T23:05:18;19.80;75.00
25953;DHT22;13750;50.804;8.764;2022-07-22T23:07:44;19.80;75.10
25953;DHT22;13750;50.804;8.764;2022-07-22T23:10:09;19.80;75.20
25953;DHT22;13750;50.804;8.764;2022-07-22T23:12:36;19.70;75.20
25953;DHT22;13750;50.804;8.764;2022-07-22T23:15:02;19.80;75.30
25953;DHT22;13750;50.804;8.764;2022-07-22T23:17:28;19.70;75.30
25953;DHT22;13750;50.804;8.764;2022-07-22T23:19:54;19.80;75.30
25953;DHT22;13750;50.804;8.764;2022-07-22T23:22:20;19.80;75.30
25953;DHT22;13750;50.804;8.764;2022-07-22T23:24:46;19.80;75.30
25953;DHT22;13750;50.804;8.764;2022-07-22T23:27:12;19.80;75.20
25953;DHT22;13750;50.804;8.764;2022-07-22T23:29:37;19.80;75.30
25953;DHT22;13750;50.804;8.764;2022-07-22T23:32:04;19.70;74.90
25953;DHT22;13750;50.804;8.764;2022-07-22T23:34:30;19.70;75.00
25953;DHT22;13750;50.804;8.764;2022-07-22T23:36:55;19.70;75.20
25953;DHT22;13750;50.804;8.764;2022-07-22T23:39:22;19.70;75.30
25953;DHT22;13750;50.804;8.764;2022-07-22T23:41:47;19.70;75.40
25953;DHT22;13750;50.804;8.764;2022-07-22T23:44:13;19.70;75.40
25953;DHT22;13750;50.804;8.764;2022-07-22T23:46:39;19.60;75.60
25953;DHT22;13750;50.804;8.764;2022-07-22T23:49:05;19.60;75.50
25953;DHT22;13750;50.804;8.764;2022-07-22T23:51:30;19.60;75.60
25953;DHT22;13750;50.804;8.764;2022-07-22T23:54:00;19.60;75.70
25953;DHT22;13750;50.804;8.764;2022-07-22T23:56:27;19.60;75.80
25953;DHT22;13750;50.804;8.764;2022-07-22T23:58:53;19.60;76.00
